createdAt,value
2018-03-26T00:00:31.421Z,3.3
2018-03-26T00:01:21.752Z,3.3
2018-03-26T00:02:11.937Z,3.3
2018-03-26T00:03:02.187Z,3.3
2018-03-26T00:03:51.357Z,3.3
2018-03-26T00:04:41.732Z,3.3
2018-03-26T00:05:31.791Z,3.3
2018-03-26T00:06:21.536Z,3.3
2018-03-26T00:07:12.436Z,3.3
2018-03-26T00:08:01.631Z,3.3
2018-03-26T00:08:52.106Z,3.3
2018-03-26T00:09:42.336Z,3.3
2018-03-26T00:10:31.914Z,3.3
2018-03-26T00:11:22.734Z,3.3
2018-03-26T00:12:12.800Z,3.3
2018-03-26T00:13:01.801Z,3.3
2018-03-26T00:13:52.619Z,3.3
2018-03-26T00:14:42.994Z,3.3
2018-03-26T00:15:32.752Z,3.3
2018-03-26T00:16:22.409Z,3.3
2018-03-26T00:17:12.842Z,3.3
2018-03-26T00:18:02.369Z,3.4
2018-03-26T00:18:52.427Z,3.4
2018-03-26T00:19:42.836Z,3.4
2018-03-26T00:20:32.526Z,3.4
2018-03-26T00:21:22.454Z,3.3
2018-03-26T00:22:13.289Z,3.3
2018-03-26T00:23:02.390Z,3.4
2018-03-26T00:23:53.115Z,3.3
2018-03-26T00:24:42.676Z,3.3
2018-03-26T00:25:33.029Z,3.4
2018-03-26T00:26:23.167Z,3.3
2018-03-26T00:27:12.566Z,3.3
2018-03-26T00:28:03.319Z,3.3
2018-03-26T00:28:52.961Z,3.3
2018-03-26T00:29:43.408Z,3.3
2018-03-26T00:30:33.555Z,3.3
2018-03-26T00:31:23.648Z,3.3
2018-03-26T00:32:13.890Z,3.3
2018-03-26T00:33:03.430Z,3.3
2018-03-26T00:33:54.298Z,3.3
2018-03-26T00:34:43.063Z,3.3
2018-03-26T00:35:33.635Z,3.3
2018-03-26T00:36:23.893Z,3.3
2018-03-26T00:37:13.945Z,3.3
2018-03-26T00:38:04.295Z,3.3
2018-03-26T00:38:54.145Z,3.3
2018-03-26T00:39:44.230Z,3.3
2018-03-26T00:40:33.883Z,3.3
2018-03-26T00:41:23.733Z,3.3
2018-03-26T00:42:14.272Z,3.3
2018-03-26T00:43:04.144Z,3.2
2018-03-26T00:43:53.905Z,3.3
2018-03-26T00:44:44.535Z,3.3
2018-03-26T00:45:34.502Z,3.3
2018-03-26T00:46:24.361Z,3.2
2018-03-26T00:47:14.892Z,3.3
2018-03-26T00:48:04.929Z,3.3
2018-03-26T00:48:55.278Z,3.3
2018-03-26T00:49:45.341Z,3.2
2018-03-26T00:50:35.131Z,3.2
2018-03-26T00:51:25.454Z,3.2
2018-03-26T00:52:15.530Z,3.1
2018-03-26T00:53:05.294Z,3.1
2018-03-26T00:53:55.614Z,3.1
2018-03-26T00:54:45.392Z,3.1
2018-03-26T00:55:35.461Z,3.1
2018-03-26T00:56:25.786Z,3
2018-03-26T00:57:15.559Z,3
2018-03-26T00:58:05.666Z,3
2018-03-26T00:58:55.972Z,3
2018-03-26T00:59:45.744Z,3
2018-03-26T01:00:35.816Z,2.9
2018-03-26T01:01:26.122Z,2.9
2018-03-26T01:02:16.179Z,2.9
2018-03-26T01:03:05.684Z,2.9
2018-03-26T01:03:56.026Z,2.9
2018-03-26T01:04:46.366Z,2.9
2018-03-26T01:05:36.166Z,2.9
2018-03-26T01:06:26.470Z,2.9
2018-03-26T01:07:16.566Z,2.9
2018-03-26T01:08:06.354Z,2.9
2018-03-26T01:08:56.094Z,2.8
2018-03-26T01:09:46.431Z,2.9
2018-03-26T01:10:36.774Z,2.9
2018-03-26T01:11:26.543Z,2.9
2018-03-26T01:12:16.599Z,2.9
2018-03-26T01:13:06.990Z,2.9
2018-03-26T01:13:56.983Z,2.9
2018-03-26T01:14:47.036Z,2.8
2018-03-26T01:15:36.535Z,2.8
2018-03-26T01:16:26.889Z,2.8
2018-03-26T01:17:17.227Z,2.8
2018-03-26T01:18:06.212Z,2.8
2018-03-26T01:18:56.490Z,2.8
2018-03-26T01:19:46.531Z,2.8
2018-03-26T01:20:36.896Z,2.8
2018-03-26T01:21:27.257Z,2.8
2018-03-26T01:22:16.998Z,2.8
2018-03-26T01:23:07.246Z,2.8
2018-03-26T01:23:56.925Z,2.7
2018-03-26T01:24:47.193Z,2.7
2018-03-26T01:25:37.254Z,2.7
2018-03-26T01:26:27.280Z,2.7
2018-03-26T01:27:16.480Z,2.7
2018-03-26T01:28:07.705Z,2.7
2018-03-26T01:28:56.966Z,2.6
2018-03-26T01:29:47.025Z,2.6
2018-03-26T01:30:37.584Z,2.6
2018-03-26T01:31:27.534Z,2.7
2018-03-26T01:32:17.493Z,2.7
2018-03-26T01:33:07.758Z,2.6
2018-03-26T01:33:57.688Z,2.6
2018-03-26T01:34:47.570Z,2.6
2018-03-26T01:35:38.004Z,2.6
2018-03-26T01:36:27.672Z,2.7
2018-03-26T01:37:18.014Z,2.7
2018-03-26T01:38:07.889Z,2.7
2018-03-26T01:38:57.821Z,2.6
2018-03-26T01:39:48.476Z,2.7
2018-03-26T01:40:38.145Z,2.7
2018-03-26T01:41:28.894Z,2.7
2018-03-26T01:42:18.682Z,2.7
2018-03-26T01:43:08.439Z,2.7
2018-03-26T01:43:58.778Z,2.7
2018-03-26T01:44:48.252Z,2.7
2018-03-26T01:45:38.606Z,2.8
2018-03-26T01:46:28.456Z,2.8
2018-03-26T01:47:18.759Z,2.8
2018-03-26T01:48:08.803Z,2.8
2018-03-26T01:48:58.724Z,2.8
2018-03-26T01:49:48.689Z,2.8
2018-03-26T01:50:38.453Z,2.8
2018-03-26T01:51:28.497Z,2.8
2018-03-26T01:52:19.650Z,2.8
2018-03-26T01:53:08.725Z,2.7
2018-03-26T01:53:59.468Z,2.7
2018-03-26T01:54:49.225Z,2.7
2018-03-26T01:55:39.078Z,2.8
2018-03-26T01:56:29.720Z,2.8
2018-03-26T01:57:19.010Z,2.8
2018-03-26T01:58:09.553Z,2.8
2018-03-26T01:58:59.166Z,2.8
2018-03-26T01:59:49.560Z,2.8
2018-03-26T02:00:39.623Z,2.8
2018-03-26T02:01:29.745Z,2.8
2018-03-26T02:02:19.826Z,2.8
2018-03-26T02:03:09.889Z,2.8
2018-03-26T02:03:59.848Z,2.8
2018-03-26T02:04:49.546Z,2.7
2018-03-26T02:05:39.969Z,2.8
2018-03-26T02:06:30.218Z,2.8
2018-03-26T02:07:19.890Z,2.8
2018-03-26T02:08:10.148Z,2.8
2018-03-26T02:08:59.920Z,2.8
2018-03-26T02:09:49.764Z,2.8
2018-03-26T02:10:40.614Z,2.8
2018-03-26T02:11:30.393Z,2.8
2018-03-26T02:12:20.234Z,2.8
2018-03-26T02:13:09.988Z,2.8
2018-03-26T02:14:00.255Z,2.8
2018-03-26T02:14:50.163Z,2.8
2018-03-26T02:15:40.652Z,2.8
2018-03-26T02:16:30.000Z,2.8
2018-03-26T02:17:20.768Z,2.8
2018-03-26T02:18:10.328Z,2.9
2018-03-26T02:19:00.947Z,2.8
2018-03-26T02:19:50.142Z,2.8
2018-03-26T02:20:40.995Z,2.8
2018-03-26T02:21:31.335Z,2.8
2018-03-26T02:22:20.316Z,2.8
2018-03-26T02:23:10.963Z,2.8
2018-03-26T02:24:00.724Z,2.8
2018-03-26T02:24:50.479Z,2.8
2018-03-26T02:25:40.936Z,2.8
2018-03-26T02:26:31.465Z,2.8
2018-03-26T02:27:21.136Z,2.9
2018-03-26T02:28:11.300Z,2.9
2018-03-26T02:29:01.082Z,2.9
2018-03-26T02:29:51.220Z,2.9
2018-03-26T02:30:41.191Z,2.9
2018-03-26T02:31:31.821Z,2.9
2018-03-26T02:32:21.878Z,2.8
2018-03-26T02:33:10.962Z,2.8
2018-03-26T02:34:01.109Z,2.8
2018-03-26T02:34:51.958Z,2.8
2018-03-26T02:35:41.322Z,2.8
2018-03-26T02:36:32.103Z,2.8
2018-03-26T02:37:21.049Z,2.8
2018-03-26T02:38:12.491Z,2.8
2018-03-26T02:39:02.064Z,2.8
2018-03-26T02:39:52.406Z,2.7
2018-03-26T02:40:41.899Z,2.8
2018-03-26T02:41:31.708Z,2.8
2018-03-26T02:42:22.276Z,2.8
2018-03-26T02:43:12.528Z,2.8
2018-03-26T02:44:02.590Z,2.7
2018-03-26T02:44:52.541Z,2.7
2018-03-26T02:45:42.696Z,2.7
2018-03-26T02:46:32.837Z,2.7
2018-03-26T02:47:22.818Z,2.7
2018-03-26T02:48:13.443Z,2.6
2018-03-26T02:49:02.514Z,2.7
2018-03-26T02:49:53.003Z,2.7
2018-03-26T02:50:43.550Z,2.7
2018-03-26T02:51:33.118Z,2.7
2018-03-26T02:52:22.880Z,2.7
2018-03-26T02:53:13.010Z,2.7
2018-03-26T02:54:03.567Z,2.8
2018-03-26T02:54:53.610Z,2.8
2018-03-26T02:55:43.369Z,2.9
2018-03-26T02:56:33.292Z,2.8
2018-03-26T02:57:23.605Z,2.8
2018-03-26T02:58:13.375Z,2.8
2018-03-26T02:59:03.944Z,2.9
2018-03-26T02:59:53.486Z,2.9
2018-03-26T03:00:43.736Z,2.9
2018-03-26T03:01:33.500Z,2.9
2018-03-26T03:02:24.425Z,2.9
2018-03-26T03:03:14.461Z,2.9
2018-03-26T03:04:04.527Z,2.9
2018-03-26T03:04:54.563Z,3
2018-03-26T03:05:44.665Z,3
2018-03-26T03:06:33.543Z,3.1
2018-03-26T03:07:24.465Z,3.1
2018-03-26T03:08:14.530Z,3.1
2018-03-26T03:09:04.853Z,3.1
2018-03-26T03:09:54.634Z,3.1
2018-03-26T03:10:44.968Z,3.2
2018-03-26T03:11:34.722Z,3.2
2018-03-26T03:12:25.087Z,3.2
2018-03-26T03:13:14.896Z,3.3
2018-03-26T03:14:05.194Z,3.3
2018-03-26T03:14:54.384Z,3.3
2018-03-26T03:15:45.313Z,3.3
2018-03-26T03:16:34.799Z,3.3
2018-03-26T03:17:25.416Z,3.3
2018-03-26T03:18:15.490Z,3.3
2018-03-26T03:19:05.051Z,3.3
2018-03-26T03:19:55.289Z,3.4
2018-03-26T03:20:45.353Z,3.3
2018-03-26T03:21:35.421Z,3.3
2018-03-26T03:22:25.745Z,3.3
2018-03-26T03:23:15.838Z,3.3
2018-03-26T03:24:05.581Z,3.3
2018-03-26T03:24:55.643Z,3.3
2018-03-26T03:25:45.809Z,3.3
2018-03-26T03:26:36.079Z,3.3
2018-03-26T03:27:25.550Z,3.3
2018-03-26T03:28:15.882Z,3.3
2018-03-26T03:29:05.455Z,3.3
2018-03-26T03:29:55.983Z,3.3
2018-03-26T03:30:45.294Z,3.2
2018-03-26T03:31:35.835Z,3.3
2018-03-26T03:32:25.304Z,3.3
2018-03-26T03:33:16.328Z,3.3
2018-03-26T03:34:05.813Z,3.3
2018-03-26T03:34:56.345Z,3.2
2018-03-26T03:35:46.673Z,3.3
2018-03-26T03:36:35.700Z,3.3
2018-03-26T03:37:26.605Z,3.2
2018-03-26T03:38:16.278Z,3.2
2018-03-26T03:39:06.329Z,3.3
2018-03-26T03:39:56.696Z,3.2
2018-03-26T03:40:46.551Z,3.2
2018-03-26T03:41:36.817Z,3.2
2018-03-26T03:42:26.372Z,3.2
2018-03-26T03:43:16.332Z,3.2
2018-03-26T03:44:06.393Z,3.2
2018-03-26T03:44:56.743Z,3.3
2018-03-26T03:45:45.720Z,3.2
2018-03-26T03:46:36.446Z,3.2
2018-03-26T03:47:26.985Z,3.3
2018-03-26T03:48:16.670Z,3.3
2018-03-26T03:49:07.115Z,3.3
2018-03-26T03:49:57.455Z,3.2
2018-03-26T03:50:47.707Z,3.2
2018-03-26T03:51:36.915Z,3.2
2018-03-26T03:52:27.333Z,3.2
2018-03-26T03:53:17.875Z,3.2
2018-03-26T03:54:07.437Z,3.2
2018-03-26T03:54:57.714Z,3.1
2018-03-26T03:55:47.577Z,3.1
2018-03-26T03:56:37.436Z,3.1
2018-03-26T03:57:27.585Z,3.1
2018-03-26T03:58:17.062Z,3.1
2018-03-26T03:59:07.457Z,3.1
2018-03-26T03:59:57.552Z,3.1
2018-03-26T04:00:47.332Z,3.1
2018-03-26T04:01:37.282Z,3.1
2018-03-26T04:02:27.718Z,3.1
2018-03-26T04:03:18.008Z,3.1
2018-03-26T04:04:08.044Z,3.1
2018-03-26T04:04:58.090Z,3.2
2018-03-26T04:05:48.148Z,3.1
2018-03-26T04:06:38.186Z,3.1
2018-03-26T04:07:28.058Z,3.1
2018-03-26T04:08:18.403Z,3.1
2018-03-26T04:09:08.178Z,3.1
2018-03-26T04:09:58.710Z,3.1
2018-03-26T04:10:47.880Z,3.1
2018-03-26T04:11:38.253Z,3.1
2018-03-26T04:12:28.938Z,3.1
2018-03-26T04:13:18.665Z,3.1
2018-03-26T04:14:08.612Z,3.1
2018-03-26T04:14:59.373Z,3.1
2018-03-26T04:15:48.858Z,3.1
2018-03-26T04:16:38.410Z,3.1
2018-03-26T04:17:28.845Z,3.1
2018-03-26T04:18:19.162Z,3.2
2018-03-26T04:19:09.368Z,3.2
2018-03-26T04:19:59.400Z,3.1
2018-03-26T04:20:49.168Z,3.1
2018-03-26T04:21:39.821Z,3.2
2018-03-26T04:22:29.593Z,3.3
2018-03-26T04:23:19.051Z,3.2
2018-03-26T04:24:09.489Z,3.2
2018-03-26T04:24:59.757Z,3.2
2018-03-26T04:25:49.614Z,3.3
2018-03-26T04:26:39.843Z,3.2
2018-03-26T04:27:29.911Z,3.2
2018-03-26T04:28:19.766Z,3.2
2018-03-26T04:29:09.549Z,3.2
2018-03-26T04:29:58.909Z,3.1
2018-03-26T04:30:49.958Z,3.1
2018-03-26T04:31:39.498Z,3.1
2018-03-26T04:32:29.876Z,3.1
2018-03-26T04:33:20.333Z,3.1
2018-03-26T04:34:10.173Z,3.1
2018-03-26T04:35:00.433Z,3.1
2018-03-26T04:35:49.906Z,3.1
2018-03-26T04:36:40.131Z,3.1
2018-03-26T04:37:30.695Z,3.1
2018-03-26T04:38:20.378Z,3.1
2018-03-26T04:39:10.708Z,3.1
2018-03-26T04:40:00.304Z,3.1
2018-03-26T04:40:50.578Z,3.1
2018-03-26T04:41:40.237Z,3.1
2018-03-26T04:42:30.366Z,3.1
2018-03-26T04:43:20.701Z,3.1
2018-03-26T04:44:10.273Z,3.1
2018-03-26T04:44:59.948Z,3.1
2018-03-26T04:45:51.174Z,3.2
2018-03-26T04:46:40.631Z,3.2
2018-03-26T04:47:31.565Z,3.2
2018-03-26T04:48:21.030Z,3.3
2018-03-26T04:49:11.108Z,3.3
2018-03-26T04:50:00.865Z,3.3
2018-03-26T04:50:50.921Z,3.3
2018-03-26T04:51:40.685Z,3.3
2018-03-26T04:52:31.031Z,3.3
2018-03-26T04:53:21.171Z,3.3
2018-03-26T04:54:11.255Z,3.3
2018-03-26T04:55:01.559Z,3.3
2018-03-26T04:55:52.109Z,3.3
2018-03-26T04:56:41.605Z,3.3
2018-03-26T04:57:31.485Z,3.3
2018-03-26T04:58:21.707Z,3.3
2018-03-26T04:59:11.909Z,3.3
2018-03-26T05:00:01.845Z,3.3
2018-03-26T05:00:51.292Z,3.3
2018-03-26T05:01:42.255Z,3.4
2018-03-26T05:02:31.733Z,3.3
2018-03-26T05:03:22.071Z,3.3
2018-03-26T05:04:12.681Z,3.4
2018-03-26T05:05:01.970Z,3.4
2018-03-26T05:05:52.600Z,3.4
2018-03-26T05:06:42.594Z,3.4
2018-03-26T05:07:32.619Z,3.4
2018-03-26T05:08:22.124Z,3.4
2018-03-26T05:09:12.466Z,3.4
2018-03-26T05:10:02.017Z,3.4
2018-03-26T05:10:51.799Z,3.4
2018-03-26T05:11:42.439Z,3.4
2018-03-26T05:12:32.101Z,3.4
2018-03-26T05:13:23.131Z,3.4
2018-03-26T05:14:12.761Z,3.4
2018-03-26T05:15:02.876Z,3.4
2018-03-26T05:15:52.918Z,3.4
2018-03-26T05:16:42.477Z,3.4
2018-03-26T05:17:32.749Z,3.4
2018-03-26T20:17:46.540Z,5.1
2018-03-26T20:18:36.209Z,5.1
2018-03-26T20:19:26.597Z,5
2018-03-26T20:20:16.590Z,5.1
2018-03-26T20:21:06.079Z,5
2018-03-26T20:21:56.721Z,5
2018-03-26T20:22:46.768Z,5.1
2018-03-26T20:23:36.539Z,5
2018-03-26T20:24:26.934Z,5.1
2018-03-26T20:25:16.648Z,5.1
2018-03-26T20:26:07.056Z,5.1
2018-03-26T20:26:57.074Z,5.1
2018-03-26T20:27:47.106Z,5.1
2018-03-26T20:28:37.166Z,5.1
2018-03-26T20:29:27.231Z,5.1
2018-03-26T20:30:17.278Z,5.1
2018-03-26T20:31:06.676Z,5.1
2018-03-26T20:31:56.565Z,5.1
2018-03-26T20:32:46.735Z,5.1
2018-03-26T20:33:36.968Z,5.1
2018-03-26T20:34:27.013Z,5.1
2018-03-26T20:35:17.098Z,5.1
2018-03-26T20:36:07.147Z,5.1
2018-03-26T20:36:57.484Z,5.1
2018-03-26T20:37:47.043Z,5.1
2018-03-26T20:38:37.678Z,5.1
2018-03-26T20:39:27.453Z,5
2018-03-26T20:40:17.698Z,5.1
2018-03-26T20:41:08.248Z,5
2018-03-26T20:41:58.152Z,5
2018-03-26T20:42:48.149Z,5
2018-03-26T20:43:38.257Z,5
2018-03-26T20:44:28.251Z,5
2018-03-26T20:45:18.315Z,5
2018-03-26T20:46:08.430Z,5
2018-03-26T20:46:58.174Z,5
2018-03-26T20:47:48.225Z,5
2018-03-26T20:48:38.543Z,5
2018-03-26T20:49:28.614Z,5
2018-03-26T20:50:18.128Z,4.9
2018-03-26T20:51:08.172Z,4.9
2018-03-26T20:51:58.860Z,4.9
2018-03-26T20:52:48.901Z,4.9
2018-03-26T20:53:38.687Z,4.9
2018-03-26T20:54:28.949Z,4.9
2018-03-26T20:55:18.748Z,4.9
2018-03-26T20:56:09.089Z,4.9
2018-03-26T20:56:59.106Z,4.9
2018-03-26T20:57:49.189Z,4.9
2018-03-26T20:58:38.944Z,4.9
2018-03-26T20:59:29.302Z,4.9
2018-03-26T21:00:19.087Z,4.9
2018-03-26T21:01:09.148Z,4.9
2018-03-26T21:01:59.469Z,4.9
2018-03-26T21:02:49.246Z,5
2018-03-26T21:03:39.579Z,4.9
2018-03-26T21:04:29.671Z,4.9
2018-03-26T21:05:19.714Z,5
2018-03-26T21:06:10.071Z,5
2018-03-26T21:06:59.841Z,5
2018-03-26T21:07:49.645Z,4.9
2018-03-26T21:08:40.029Z,5
2018-03-26T21:09:30.005Z,5
2018-03-26T21:10:19.506Z,5
2018-03-26T21:11:10.096Z,5
2018-03-26T21:12:00.213Z,5
2018-03-26T21:12:50.226Z,5
2018-03-26T21:13:40.289Z,5
2018-03-26T21:14:30.397Z,5
2018-03-26T21:15:20.391Z,5
2018-03-26T21:16:10.186Z,5
2018-03-26T21:17:00.528Z,4.9
2018-03-26T21:17:50.294Z,5
2018-03-26T21:18:40.069Z,4.9
2018-03-26T21:19:30.743Z,5
2018-03-26T21:20:20.465Z,5
2018-03-26T21:21:10.801Z,5
2018-03-26T21:22:00.304Z,5
2018-03-26T21:22:50.893Z,5
2018-03-26T21:23:40.703Z,5.1
2018-03-26T21:24:31.146Z,5.1
2018-03-26T21:25:20.812Z,5.1
2018-03-26T21:26:10.860Z,5.1
2018-03-26T21:27:00.918Z,5.1
2018-03-26T21:27:50.967Z,5
2018-03-26T21:28:41.350Z,5.1
2018-03-26T21:29:31.363Z,5
2018-03-26T21:30:21.142Z,5
2018-03-26T21:31:11.480Z,5
2018-03-26T21:32:01.523Z,5
2018-03-26T21:32:51.595Z,5
2018-03-26T21:33:41.661Z,5
2018-03-26T21:34:31.766Z,5
2018-03-26T21:35:21.759Z,5
2018-03-26T21:36:11.265Z,5
2018-03-26T21:37:01.873Z,4.9
2018-03-26T21:37:51.957Z,5
2018-03-26T21:38:41.722Z,4.9
2018-03-26T21:39:32.052Z,4.9
2018-03-26T21:40:21.846Z,4.9
2018-03-26T21:41:11.422Z,4.9
2018-03-26T21:42:01.985Z,4.9
2018-03-26T21:42:51.819Z,4.9
2018-03-26T21:43:41.519Z,4.9
2018-03-26T21:44:31.549Z,4.9
2018-03-26T21:45:21.996Z,4.9
2018-03-26T21:46:11.977Z,4.9
2018-03-26T21:47:02.212Z,4.9
2018-03-26T21:47:52.393Z,4.9
2018-03-26T21:48:42.040Z,4.9
2018-03-26T21:49:32.187Z,4.8
2018-03-26T21:50:21.958Z,4.9
2018-03-26T21:51:12.307Z,4.8
2018-03-26T21:52:02.661Z,4.8
2018-03-26T21:52:52.812Z,4.8
2018-03-26T21:53:42.295Z,4.8
2018-03-26T21:54:32.815Z,4.8
2018-03-26T21:55:22.182Z,4.8
2018-03-26T21:56:11.896Z,4.8
2018-03-26T21:57:02.784Z,4.8
2018-03-26T21:57:52.760Z,4.8
2018-03-26T21:58:42.624Z,4.8
2018-03-26T21:59:32.876Z,4.8
2018-03-26T22:00:22.656Z,4.8
2018-03-26T22:01:12.790Z,4.8
2018-03-26T22:02:03.056Z,4.8
2018-03-26T22:02:53.113Z,4.8
2018-03-26T22:03:42.871Z,4.8
2018-03-26T22:04:32.778Z,4.8
2018-03-26T22:05:23.606Z,4.8
2018-03-26T22:06:13.736Z,4.8
2018-03-26T22:07:02.911Z,4.8
2018-03-26T22:07:53.738Z,4.8
2018-03-26T22:08:43.798Z,4.8
2018-03-26T22:09:33.900Z,4.8
2018-03-26T22:10:23.146Z,4.7
2018-03-26T22:11:13.411Z,4.7
2018-03-26T22:12:03.851Z,4.7
2018-03-26T22:12:54.085Z,4.7
2018-03-26T22:13:43.679Z,4.7
2018-03-26T22:14:33.924Z,4.7
2018-03-26T22:15:23.699Z,4.7
2018-03-26T22:16:13.832Z,4.6
2018-03-26T22:17:03.732Z,4.6
2018-03-26T22:17:54.446Z,4.6
2018-03-26T22:18:44.218Z,4.6
2018-03-26T22:19:34.373Z,4.6
2018-03-26T22:20:24.116Z,4.6
2018-03-26T22:21:14.765Z,4.6
2018-03-26T22:22:04.455Z,4.6
2018-03-26T22:22:54.194Z,4.6
2018-03-26T22:23:44.840Z,4.6
2018-03-26T22:24:34.712Z,4.6
2018-03-26T22:25:24.683Z,4.6
2018-03-26T22:26:15.133Z,4.6
2018-03-26T22:27:04.867Z,4.6
2018-03-26T22:27:54.862Z,4.6
2018-03-26T22:28:44.895Z,4.6
2018-03-26T22:29:34.969Z,4.6
2018-03-26T22:30:24.914Z,4.6
2018-03-26T22:31:14.956Z,4.6
2018-03-26T22:32:05.454Z,4.6
2018-03-26T22:32:54.695Z,4.6
2018-03-26T22:33:45.174Z,4.6
2018-03-26T22:34:34.984Z,4.6
2018-03-26T22:35:25.386Z,4.6
2018-03-26T22:36:14.930Z,4.6
2018-03-26T22:37:05.066Z,4.6
2018-03-26T22:37:55.431Z,4.6
2018-03-26T22:38:44.995Z,4.6
2018-03-26T22:39:35.057Z,4.6
2018-03-26T22:40:25.790Z,4.6
2018-03-26T22:41:15.786Z,4.6
2018-03-26T22:42:06.394Z,4.6
2018-03-26T22:42:55.609Z,4.6
2018-03-26T22:43:46.024Z,4.6
2018-03-26T22:44:36.086Z,4.6
2018-03-26T22:45:25.819Z,4.6
2018-03-26T22:46:15.999Z,4.6
2018-03-26T22:47:06.400Z,4.6
2018-03-26T22:47:55.730Z,4.6
2018-03-26T22:48:46.393Z,4.6
2018-03-26T22:49:36.937Z,4.6
2018-03-26T22:50:26.410Z,4.6
2018-03-26T22:51:16.445Z,4.6
2018-03-26T22:52:06.790Z,4.6
2018-03-26T22:52:56.571Z,4.6
2018-03-26T22:53:46.510Z,4.6
2018-03-26T22:54:36.471Z,4.6
2018-03-26T22:55:26.328Z,4.6
2018-03-26T22:56:16.872Z,4.6
2018-03-26T22:57:06.569Z,4.6
2018-03-26T22:57:56.910Z,4.6
2018-03-26T22:58:47.272Z,4.6
2018-03-26T22:59:37.317Z,4.6
2018-03-26T23:00:27.355Z,4.6
2018-03-26T23:01:16.740Z,4.6
2018-03-26T23:02:07.210Z,4.6
2018-03-26T23:02:56.967Z,4.6
2018-03-26T23:03:47.383Z,4.6
2018-03-26T23:04:37.478Z,4.6
2018-03-26T23:05:27.248Z,4.6
2018-03-26T23:06:17.306Z,4.6
2018-03-26T23:07:07.822Z,4.6
2018-03-26T23:07:57.210Z,4.6
2018-03-26T23:08:47.444Z,4.6
2018-03-26T23:09:37.214Z,4.5
2018-03-26T23:10:28.094Z,4.6
2018-03-26T23:11:17.316Z,4.5
2018-03-26T23:12:07.575Z,4.5
2018-03-26T23:12:57.812Z,4.5
2018-03-26T23:13:48.009Z,4.5
2018-03-26T23:14:38.057Z,4.6
2018-03-26T23:15:28.401Z,4.5
2018-03-26T23:16:17.692Z,4.5
2018-03-26T23:17:08.545Z,4.5
2018-03-26T23:17:58.569Z,4.6
2018-03-26T23:18:48.617Z,4.6
2018-03-26T23:19:38.218Z,4.6
2018-03-26T23:20:28.558Z,4.6
2018-03-26T23:21:18.794Z,4.6
2018-03-26T23:22:08.300Z,4.6
2018-03-26T23:22:58.933Z,4.6
2018-03-26T23:23:48.989Z,4.6
2018-03-26T23:24:38.838Z,4.6
2018-03-26T23:25:28.331Z,4.6
2018-03-26T23:26:18.870Z,4.6
2018-03-26T23:27:08.933Z,4.6
2018-03-26T23:27:58.980Z,4.6
2018-03-26T23:28:48.461Z,4.6
2018-03-26T23:29:39.103Z,4.6
2018-03-26T23:30:29.146Z,4.6
2018-03-26T23:31:18.735Z,4.6
2018-03-26T23:32:09.069Z,4.6
2018-03-26T23:32:59.458Z,4.5
2018-03-26T23:33:49.159Z,4.5
2018-03-26T23:34:39.518Z,4.5
2018-03-26T23:35:29.294Z,4.5
2018-03-26T23:36:19.866Z,4.6
2018-03-26T23:37:09.696Z,4.5
2018-03-26T23:37:59.067Z,4.5
2018-03-26T23:38:49.197Z,4.5
2018-03-26T23:39:39.880Z,4.5
2018-03-26T23:40:29.581Z,4.5
2018-03-26T23:41:19.710Z,4.5
2018-03-26T23:42:09.767Z,4.5
2018-03-26T23:42:59.732Z,4.5
2018-03-26T23:43:49.495Z,4.5
2018-03-26T23:44:39.929Z,4.5
2018-03-26T23:45:29.612Z,4.5
2018-03-26T23:46:19.762Z,4.4
2018-03-26T23:47:10.623Z,4.5
2018-03-26T23:47:59.970Z,4.5
2018-03-26T23:48:50.128Z,4.5
2018-03-26T23:49:40.480Z,4.5
2018-03-26T23:50:30.552Z,4.4
2018-03-26T23:51:20.881Z,4.4
2018-03-26T23:52:10.732Z,4.5
2018-03-26T23:53:00.507Z,4.5
2018-03-26T23:53:50.587Z,4.5
2018-03-26T23:54:40.646Z,4.5
2018-03-26T23:55:30.575Z,4.5
2018-03-26T23:56:21.020Z,4.5
2018-03-26T23:57:11.022Z,4.5
2018-03-26T23:58:00.767Z,4.5
2018-03-26T23:58:51.409Z,4.4
2018-03-26T23:59:40.974Z,4.4
